Time;durP1;ratioP1;P1;durP2;ratioP2;P2;SDS_P1;SDS_P2;PMS_P1;PMS_P2;Temp;Humidity;BMP_temperature;BMP_pressure;BME280_temperature;BME280_humidity;BME280_pressure;Samples;Min_cycle;Max_cycle;Signal;HPM_P1;HPM_P2
2022/05/24 00:01:41;;;;;;;8.88;3.78;;;16.90;99.90;;;;;;5010293;28;20298;-33
2022/05/24 00:04:11;;;;;;;6.78;3.55;;;16.90;99.90;;;;;;5028244;28;20205;-33
2022/05/24 00:06:38;;;;;;;5.28;2.83;;;16.90;99.90;;;;;;5027089;28;20200;-34
2022/05/24 00:09:05;;;;;;;6.30;3.38;;;16.80;99.90;;;;;;5032874;28;20242;-34
2022/05/24 00:11:35;;;;;;;6.85;3.20;;;16.80;99.90;;;;;;5047667;28;20299;-33
2022/05/24 00:14:02;;;;;;;7.22;2.92;;;16.70;99.90;;;;;;5047590;28;20200;-33
2022/05/24 00:16:30;;;;;;;4.65;3.08;;;16.70;99.90;;;;;;5036226;28;20204;-35
2022/05/24 00:18:57;;;;;;;8.43;2.83;;;16.70;99.90;;;;;;5028526;28;20233;-34
2022/05/24 00:21:25;;;;;;;6.63;2.60;;;16.70;99.90;;;;;;5028147;28;20197;-34
2022/05/24 00:23:52;;;;;;;7.05;2.80;;;16.60;99.90;;;;;;5028181;28;20675;-33
2022/05/24 00:26:32;;;;;;;7.05;2.50;;;16.60;99.90;;;;;;5036613;28;20215;-33
2022/05/24 00:29:00;;;;;;;6.80;2.97;;;16.60;99.90;;;;;;5047396;28;20295;-34
2022/05/24 00:31:29;;;;;;;6.15;2.60;;;16.50;99.90;;;;;;5047378;28;20212;-33
2022/05/24 00:34:01;;;;;;;6.93;2.40;;;16.50;99.90;;;;;;5047223;28;20616;-33
2022/05/24 00:36:30;;;;;;;6.50;2.72;;;16.50;99.90;;;;;;5041844;28;20213;-35
2022/05/24 00:38:57;;;;;;;6.35;2.30;;;16.40;99.90;;;;;;5052698;28;20264;-33
2022/05/24 00:41:40;;;;;;;6.53;2.13;;;16.40;99.90;;;;;;5067476;28;20235;-34
2022/05/24 00:44:25;;;;;;;5.50;2.00;;;16.30;99.90;;;;;;5067499;28;20195;-34
2022/05/24 00:47:09;;;;;;;6.10;2.10;;;16.30;99.90;;;;;;5067465;28;20210;-34
2022/05/24 00:49:46;;;;;;;4.68;2.28;;;16.20;99.90;;;;;;5059585;28;20212;-34
2022/05/24 00:52:13;;;;;;;6.88;2.33;;;16.20;99.90;;;;;;5027742;28;20204;-34
2022/05/24 00:54:46;;;;;;;5.55;2.45;;;16.10;99.90;;;;;;5028092;28;20243;-35
2022/05/24 00:57:29;;;;;;;7.28;2.28;;;16.10;99.90;;;;;;5022466;28;20213;-33
2022/05/24 01:00:05;;;;;;;4.57;2.00;;;16.00;99.90;;;;;;5026167;28;20326;-33
2022/05/24 01:02:36;;;;;;;5.00;1.95;;;16.00;99.90;;;;;;5019499;28;20270;-34
2022/05/24 01:05:06;;;;;;;7.85;2.60;;;16.00;99.90;;;;;;5016213;28;20205;-34
2022/05/24 01:07:38;;;;;;;6.85;2.63;;;16.00;99.90;;;;;;5028490;28;20204;-33
2022/05/24 01:10:15;;;;;;;3.78;2.20;;;15.90;99.90;;;;;;5024389;28;20652;-33
2022/05/24 01:12:46;;;;;;;6.15;2.20;;;16.00;99.90;;;;;;5030673;28;20215;-33
2022/05/24 01:15:16;;;;;;;5.03;2.20;;;15.90;99.90;;;;;;5031900;28;20301;-33
2022/05/24 01:17:45;;;;;;;8.82;2.72;;;15.90;99.90;;;;;;5029435;28;20288;-33
2022/05/24 01:20:15;;;;;;;6.75;2.17;;;15.80;99.90;;;;;;5020054;28;20209;-35
2022/05/24 01:23:01;;;;;;;8.27;2.30;;;15.80;99.90;;;;;;5031215;28;20625;-33
2022/05/24 01:25:41;;;;;;;6.75;2.00;;;15.80;99.90;;;;;;5030450;28;20280;-33
2022/05/24 01:28:22;;;;;;;3.92;1.67;;;15.80;99.90;;;;;;5030187;28;20244;-33
2022/05/24 01:30:54;;;;;;;7.95;2.00;;;15.70;99.90;;;;;;5030805;28;20201;-34
2022/05/24 01:36:11;;;;;;;7.75;2.08;;;15.70;99.90;;;;;;5031175;28;20255;-34
2022/05/24 01:38:51;;;;;;;5.93;1.83;;;15.70;99.90;;;;;;5040662;28;20220;-33
2022/05/24 01:41:30;;;;;;;5.72;1.90;;;15.70;99.90;;;;;;5031192;28;20259;-33
2022/05/24 01:44:00;;;;;;;5.90;1.85;;;15.70;99.90;;;;;;5012848;28;20225;-33
2022/05/24 01:46:35;;;;;;;3.35;1.48;;;15.60;99.90;;;;;;5029297;28;20661;-33
2022/05/24 01:49:25;;;;;;;3.80;1.55;;;15.60;99.90;;;;;;5029676;28;20236;-33
2022/05/24 01:52:04;;;;;;;6.38;2.05;;;15.60;99.90;;;;;;5031200;28;20656;-33
2022/05/24 01:54:39;;;;;;;3.95;1.52;;;15.60;99.90;;;;;;5030901;28;20244;-33
2022/05/24 01:57:11;;;;;;;5.10;1.52;;;15.50;99.90;;;;;;5053152;28;20238;-33
2022/05/24 01:59:40;;;;;;;3.72;1.30;;;15.50;99.90;;;;;;5030836;28;20699;-34
2022/05/24 02:02:08;;;;;;;4.22;1.40;;;15.50;99.90;;;;;;5031251;28;20288;-34
2022/05/24 02:04:38;;;;;;;5.13;1.58;;;15.50;99.90;;;;;;5030587;28;20213;-34
2022/05/24 02:07:22;;;;;;;5.32;1.80;;;15.50;99.90;;;;;;5030535;28;20243;-33
2022/05/24 02:09:55;;;;;;;4.57;1.50;;;15.50;99.90;;;;;;5040028;28;20212;-33
2022/05/24 02:12:22;;;;;;;5.07;1.45;;;15.50;99.90;;;;;;5049918;28;20546;-34
2022/05/24 02:14:58;;;;;;;5.35;2.00;;;15.50;99.90;;;;;;5049657;28;20216;-33
2022/05/24 02:17:39;;;;;;;5.57;1.80;;;15.50;99.90;;;;;;5049510;28;20624;-35
2022/05/24 02:20:13;;;;;;;6.82;1.80;;;15.50;99.90;;;;;;5049622;28;20259;-34
2022/05/24 02:22:41;;;;;;;6.05;2.08;;;15.50;99.90;;;;;;5050193;28;20672;-33
2022/05/24 02:25:35;;;;;;;6.10;2.35;;;15.50;99.90;;;;;;5048807;28;20644;-33
2022/05/24 02:28:08;;;;;;;3.72;1.70;;;15.60;99.90;;;;;;5049047;28;20307;-33
2022/05/24 02:30:46;;;;;;;6.05;1.73;;;15.50;99.90;;;;;;5050212;28;20227;-33
2022/05/24 02:33:15;;;;;;;3.13;1.73;;;15.50;99.90;;;;;;5032201;28;20770;-35
2022/05/24 02:35:45;;;;;;;7.20;2.10;;;15.50;99.90;;;;;;5037883;28;20311;-34
2022/05/24 02:38:15;;;;;;;4.63;1.95;;;15.50;99.90;;;;;;5055651;28;20184;-33
2022/05/24 02:43:30;;;;;;;5.32;2.13;;;15.50;99.90;;;;;;5069722;28;20219;-33
2022/05/24 02:45:57;;;;;;;4.53;2.08;;;15.50;99.90;;;;;;5069681;28;20215;-34
2022/05/24 02:48:25;;;;;;;6.20;2.47;;;15.50;99.90;;;;;;5064610;28;20204;-33
2022/05/24 02:50:52;;;;;;;4.70;1.60;;;15.50;99.90;;;;;;5029855;28;20220;-34
2022/05/24 02:53:20;;;;;;;6.82;1.77;;;15.50;99.90;;;;;;5042364;28;20219;-34
2022/05/24 02:55:50;;;;;;;3.92;1.75;;;15.50;99.90;;;;;;5049522;28;20267;-35
2022/05/24 02:58:18;;;;;;;5.22;1.85;;;15.50;99.90;;;;;;5063785;28;20227;-33
2022/05/24 03:00:48;;;;;;;4.60;1.70;;;15.50;99.90;;;;;;5048063;28;20771;-35
2022/05/24 03:03:15;;;;;;;4.53;1.30;;;15.50;99.90;;;;;;5048548;28;20200;-33
2022/05/24 03:05:45;;;;;;;6.57;1.35;;;15.50;99.90;;;;;;5044720;28;20247;-34
2022/05/24 03:11:05;;;;;;;4.47;1.73;;;15.50;99.90;;;;;;5048145;28;20234;-33
2022/05/24 03:16:19;;;;;;;2.47;1.00;;;15.50;99.90;;;;;;5049005;28;20961;-34
2022/05/24 03:18:48;;;;;;;6.22;1.45;;;15.50;99.90;;;;;;5049253;28;20295;-33
2022/05/24 03:21:16;;;;;;;3.55;1.00;;;15.40;99.90;;;;;;5048914;28;20283;-33
2022/05/24 03:23:43;;;;;;;3.30;1.02;;;15.40;99.90;;;;;;5048734;28;20592;-34
2022/05/24 03:26:11;;;;;;;3.10;1.10;;;15.40;99.90;;;;;;5047619;28;20312;-33
2022/05/24 03:28:38;;;;;;;4.20;1.30;;;15.40;99.90;;;;;;5048740;28;20569;-33
2022/05/24 03:31:08;;;;;;;3.25;0.90;;;15.50;99.90;;;;;;5047407;28;20211;-33
2022/05/24 03:33:36;;;;;;;3.85;1.15;;;15.40;99.90;;;;;;5048600;28;20223;-34
2022/05/24 03:36:03;;;;;;;3.90;1.27;;;15.50;99.90;;;;;;5048648;28;20266;-34
2022/05/24 03:38:31;;;;;;;6.82;2.20;;;15.40;99.90;;;;;;5057017;28;20314;-34
2022/05/24 03:40:58;;;;;;;3.90;1.45;;;15.40;99.90;;;;;;5038079;28;20773;-34
2022/05/24 03:43:28;;;;;;;5.63;1.20;;;15.40;99.90;;;;;;5032899;28;20211;-34
2022/05/24 03:46:03;;;;;;;3.43;1.13;;;15.40;99.90;;;;;;5048580;28;20291;-34
2022/05/24 03:48:33;;;;;;;6.30;1.60;;;15.40;99.90;;;;;;5048530;28;20592;-33
2022/05/24 03:51:04;;;;;;;4.15;1.20;;;15.40;99.90;;;;;;5048278;28;20634;-37
2022/05/24 03:53:34;;;;;;;4.05;1.30;;;15.40;99.90;;;;;;5048555;28;20287;-34
2022/05/24 03:56:02;;;;;;;6.20;1.45;;;15.30;99.90;;;;;;5048383;28;20271;-34
2022/05/24 03:58:30;;;;;;;3.67;1.10;;;15.30;99.90;;;;;;5028552;28;20239;-34
2022/05/24 04:00:57;;;;;;;7.53;1.42;;;15.30;99.90;;;;;;5038294;28;20726;-34
2022/05/24 04:03:24;;;;;;;5.57;1.58;;;15.30;99.90;;;;;;5047968;28;20207;-34
2022/05/24 04:05:54;;;;;;;5.45;1.35;;;15.30;99.90;;;;;;5048441;28;20208;-34
2022/05/24 04:08:26;;;;;;;3.28;1.15;;;15.30;99.90;;;;;;5048159;28;20458;-34
2022/05/24 04:11:09;;;;;;;4.22;1.40;;;15.30;99.90;;;;;;5048106;28;20204;-33
2022/05/24 04:13:39;;;;;;;7.00;1.20;;;15.30;99.90;;;;;;5047012;28;20670;-34
2022/05/24 04:16:12;;;;;;;5.33;1.27;;;15.30;99.90;;;;;;5047590;28;20570;-34
2022/05/24 04:18:39;;;;;;;4.97;1.10;;;15.20;99.90;;;;;;5032281;28;20209;-34
2022/05/24 04:21:07;;;;;;;4.30;1.17;;;15.20;99.90;;;;;;5029030;28;20295;-34
2022/05/24 04:23:47;;;;;;;3.83;1.20;;;15.20;99.90;;;;;;5028527;28;20652;-35
2022/05/24 04:26:15;;;;;;;4.95;1.20;;;15.20;99.90;;;;;;5036052;28;21029;-34
2022/05/24 04:28:44;;;;;;;3.92;1.23;;;15.10;99.90;;;;;;5047414;28;20253;-34
2022/05/24 04:31:12;;;;;;;5.65;1.40;;;15.10;99.90;;;;;;5038793;28;20548;-34
2022/05/24 04:33:44;;;;;;;2.90;1.25;;;15.10;99.90;;;;;;5027886;28;20259;-34
2022/05/24 04:36:13;;;;;;;3.17;1.05;;;15.10;99.90;;;;;;5048057;28;20726;-34
2022/05/24 04:38:40;;;;;;;3.67;1.23;;;15.10;99.90;;;;;;5057809;28;20739;-34
2022/05/24 04:43:54;;;;;;;4.15;1.50;;;15.10;99.90;;;;;;5047207;28;20601;-34
2022/05/24 04:46:21;;;;;;;4.05;1.88;;;15.10;99.90;;;;;;5047872;28;20653;-34
2022/05/24 04:48:48;;;;;;;3.47;1.10;;;15.10;99.90;;;;;;5034191;28;20749;-34
2022/05/24 04:51:16;;;;;;;3.55;1.23;;;15.10;99.90;;;;;;5031520;28;20262;-34
2022/05/24 04:53:43;;;;;;;5.45;1.30;;;15.10;99.90;;;;;;5047537;28;20753;-34
2022/05/24 04:56:12;;;;;;;5.10;1.25;;;15.10;99.90;;;;;;5048065;28;20236;-34
2022/05/24 04:58:40;;;;;;;5.80;1.67;;;15.10;99.90;;;;;;5066978;28;20196;-34
2022/05/24 05:01:07;;;;;;;6.57;1.30;;;15.10;99.90;;;;;;5067143;28;20573;-34
2022/05/24 05:03:35;;;;;;;3.38;1.30;;;15.10;99.90;;;;;;5067502;28;20298;-34
2022/05/24 05:06:06;;;;;;;6.63;1.42;;;15.10;99.90;;;;;;5034356;28;20671;-34
2022/05/24 05:08:35;;;;;;;6.17;1.40;;;15.10;99.90;;;;;;5033767;28;20242;-34
2022/05/24 05:11:05;;;;;;;7.28;1.50;;;15.10;99.90;;;;;;5047463;28;20296;-34
2022/05/24 05:13:32;;;;;;;5.25;1.60;;;15.10;99.90;;;;;;5047224;28;20741;-34
2022/05/24 05:16:00;;;;;;;5.95;1.50;;;15.10;99.90;;;;;;5047227;28;20269;-34
2022/05/24 05:18:29;;;;;;;8.95;1.73;;;15.10;99.90;;;;;;5046944;28;20250;-34
2022/05/24 05:20:58;;;;;;;3.53;1.15;;;15.10;99.90;;;;;;5047330;28;20542;-34
2022/05/24 05:23:25;;;;;;;6.20;1.55;;;15.20;99.90;;;;;;5026750;28;20217;-34
2022/05/24 05:25:52;;;;;;;4.20;1.37;;;15.20;99.90;;;;;;5036748;28;20214;-35
2022/05/24 05:28:22;;;;;;;5.00;1.40;;;15.20;99.90;;;;;;5046891;28;20210;-35
2022/05/24 05:33:36;;;;;;;5.17;1.70;;;15.30;99.90;;;;;;5047152;28;20228;-35
2022/05/24 05:36:06;;;;;;;5.53;1.30;;;15.30;99.90;;;;;;5066843;28;20219;-35
2022/05/24 05:38:33;;;;;;;6.03;1.50;;;15.40;99.90;;;;;;5059789;28;20659;-36
2022/05/24 05:41:01;;;;;;;5.22;1.48;;;15.40;99.90;;;;;;5026038;28;20232;-35
2022/05/24 05:43:28;;;;;;;6.18;1.70;;;15.40;99.90;;;;;;5040397;28;20240;-35
2022/05/24 05:46:03;;;;;;;5.28;1.45;;;15.40;99.90;;;;;;5046643;28;20694;-35
2022/05/24 05:48:31;;;;;;;6.25;1.88;;;15.50;99.90;;;;;;5047247;28;20200;-36
2022/05/24 05:50:58;;;;;;;6.20;1.30;;;15.50;99.90;;;;;;5046394;28;20729;-35
2022/05/24 05:53:25;;;;;;;3.05;1.23;;;15.50;99.90;;;;;;5048382;28;20314;-35
2022/05/24 05:55:53;;;;;;;4.45;1.30;;;15.50;99.90;;;;;;5042728;28;20240;-36
2022/05/24 05:58:21;;;;;;;5.72;1.23;;;15.60;99.90;;;;;;5048833;28;20652;-35
2022/05/24 06:00:49;;;;;;;4.53;1.35;;;15.60;99.90;;;;;;5031680;28;20291;-35
2022/05/24 06:03:17;;;;;;;5.60;1.40;;;15.60;99.90;;;;;;5030085;28;20296;-35
2022/05/24 06:05:50;;;;;;;2.45;0.95;;;15.60;99.90;;;;;;5030524;28;20651;-36
2022/05/24 06:08:18;;;;;;;5.88;1.30;;;15.60;99.90;;;;;;5030275;28;20641;-35
2022/05/24 06:10:48;;;;;;;3.25;0.80;;;15.60;99.90;;;;;;5047423;28;20323;-35
2022/05/24 06:13:15;;;;;;;6.20;1.50;;;15.70;99.90;;;;;;5049076;28;20208;-35
2022/05/24 06:15:43;;;;;;;3.65;1.15;;;15.70;99.90;;;;;;5049867;28;20307;-35
2022/05/24 06:18:10;;;;;;;4.57;1.23;;;15.70;99.90;;;;;;5049697;28;20295;-35
2022/05/24 06:20:37;;;;;;;3.85;0.90;;;15.70;99.90;;;;;;5050302;28;20263;-35
2022/05/24 06:23:07;;;;;;;6.57;1.13;;;15.70;99.90;;;;;;5049685;28;20310;-35
2022/05/24 06:25:34;;;;;;;7.32;1.60;;;15.70;99.90;;;;;;5049932;28;20335;-35
2022/05/24 06:28:02;;;;;;;9.40;1.73;;;15.70;99.90;;;;;;5036192;28;20228;-35
2022/05/24 06:30:32;;;;;;;6.78;1.70;;;15.80;99.90;;;;;;5030514;28;20754;-35
2022/05/24 06:32:59;;;;;;;5.40;1.20;;;15.80;99.90;;;;;;5030403;28;20319;-36
2022/05/24 06:35:27;;;;;;;11.80;1.55;;;15.80;99.90;;;;;;5044522;28;20220;-37
2022/05/24 06:37:54;;;;;;;2.67;1.00;;;15.90;99.90;;;;;;5053289;28;20198;-36
2022/05/24 06:40:22;;;;;;;3.60;0.80;;;15.90;99.90;;;;;;5069759;28;20310;-35
2022/05/24 06:42:49;;;;;;;6.07;1.58;;;15.90;99.90;;;;;;5067896;28;20238;-36
2022/05/24 06:45:16;;;;;;;3.40;1.02;;;16.00;99.90;;;;;;5069705;28;20211;-36
2022/05/24 06:47:46;;;;;;;3.05;0.98;;;16.00;99.90;;;;;;5041862;28;20200;-35
2022/05/24 06:50:14;;;;;;;5.07;0.90;;;16.00;99.90;;;;;;5033089;28;20235;-35
2022/05/24 06:52:47;;;;;;;2.30;0.93;;;16.00;99.90;;;;;;5048272;28;20231;-35
2022/05/24 06:55:22;;;;;;;3.22;0.90;;;16.00;99.90;;;;;;5049559;28;20349;-35
2022/05/24 06:57:50;;;;;;;4.85;1.08;;;16.00;99.90;;;;;;5043398;28;20215;-35
2022/05/24 07:03:14;;;;;;;3.25;1.02;;;16.10;99.90;;;;;;5048975;28;20203;-35
2022/05/24 07:05:43;;;;;;;3.58;1.20;;;16.10;99.90;;;;;;5028812;28;20216;-36
2022/05/24 07:08:13;;;;;;;2.67;1.08;;;16.10;99.90;;;;;;5040822;28;20239;-36
2022/05/24 07:10:40;;;;;;;3.78;1.13;;;16.10;99.90;;;;;;5048973;28;20208;-35
2022/05/24 07:13:11;;;;;;;3.95;0.90;;;16.20;99.90;;;;;;5048311;28;20220;-36
2022/05/24 07:15:38;;;;;;;3.30;1.13;;;16.20;99.90;;;;;;5049469;28;20243;-35
2022/05/24 07:18:06;;;;;;;2.78;1.00;;;16.20;99.90;;;;;;5049069;28;20200;-36
2022/05/24 07:20:36;;;;;;;3.65;0.90;;;16.20;99.90;;;;;;5048517;28;20234;-35
2022/05/24 07:23:15;;;;;;;4.10;1.30;;;16.20;99.90;;;;;;5049144;28;20219;-35
2022/05/24 07:25:44;;;;;;;6.03;1.45;;;16.20;99.90;;;;;;5048161;28;20672;-35
2022/05/24 07:28:15;;;;;;;3.42;1.10;;;16.20;99.90;;;;;;5048347;28;20698;-36
2022/05/24 07:30:47;;;;;;;4.50;1.23;;;16.20;99.90;;;;;;5048843;28;20196;-36
2022/05/24 07:33:16;;;;;;;5.38;1.20;;;16.20;99.90;;;;;;5052898;28;20249;-35
2022/05/24 07:35:44;;;;;;;3.55;1.10;;;16.20;99.90;;;;;;5068786;28;20755;-35
2022/05/24 07:38:12;;;;;;;3.05;1.20;;;16.30;99.90;;;;;;5062518;28;20252;-36
2022/05/24 07:46:30;;;;;;;1.67;1.10;;;16.40;99.90;;;;;;5027784;28;20209;-34
2022/05/24 07:49:00;;;;;;;2.58;1.10;;;16.40;99.90;;;;;;5028735;28;20189;-35
2022/05/24 07:51:30;;;;;;;2.63;1.20;;;16.40;99.90;;;;;;5043530;28;20201;-34
2022/05/24 07:53:57;;;;;;;2.65;1.10;;;16.40;99.90;;;;;;5043701;28;20305;-35
2022/05/24 07:56:25;;;;;;;2.28;1.10;;;16.40;99.90;;;;;;5028817;28;20300;-35
2022/05/24 07:58:54;;;;;;;5.80;1.92;;;16.40;99.90;;;;;;5036872;28;20653;-35
2022/05/24 08:01:23;;;;;;;5.10;1.45;;;16.40;99.90;;;;;;5047724;28;20220;-34
2022/05/24 08:03:51;;;;;;;2.90;1.23;;;16.40;99.90;;;;;;5048283;28;20211;-35
2022/05/24 08:06:18;;;;;;;2.53;0.90;;;16.40;99.90;;;;;;5048128;28;20226;-35
2022/05/24 08:08:46;;;;;;;6.25;1.27;;;16.50;99.90;;;;;;5047658;28;20242;-35
2022/05/24 08:11:15;;;;;;;3.28;1.10;;;16.50;99.90;;;;;;5047015;28;20574;-35
2022/05/24 08:13:42;;;;;;;2.95;0.95;;;16.60;99.90;;;;;;5027553;28;20255;-35
2022/05/24 08:16:12;;;;;;;2.78;1.08;;;16.60;99.90;;;;;;5038795;28;20645;-35
2022/05/24 08:18:44;;;;;;;2.30;1.08;;;16.50;99.90;;;;;;5046606;28;20358;-35
2022/05/24 08:21:16;;;;;;;2.72;1.30;;;16.60;99.90;;;;;;5047945;28;20220;-35
2022/05/24 08:23:43;;;;;;;3.00;1.48;;;16.60;99.90;;;;;;5048026;28;20539;-35
2022/05/24 08:26:10;;;;;;;6.50;2.17;;;16.70;99.90;;;;;;5047971;28;20621;-35
2022/05/24 08:28:43;;;;;;;5.43;1.52;;;16.70;99.90;;;;;;5043399;28;20248;-35
2022/05/24 08:31:14;;;;;;;1.73;1.15;;;16.80;99.90;;;;;;5026117;28;20310;-35
2022/05/24 08:33:42;;;;;;;3.42;1.27;;;16.80;99.90;;;;;;5042340;28;20596;-35
2022/05/24 08:36:13;;;;;;;4.05;1.35;;;16.80;99.90;;;;;;5047868;28;20610;-35
2022/05/24 08:38:43;;;;;;;1.95;0.90;;;16.80;99.90;;;;;;5055941;28;20195;-36
2022/05/24 08:41:19;;;;;;;9.10;1.55;;;16.80;99.90;;;;;;5067058;28;20575;-35
2022/05/24 08:43:55;;;;;;;2.28;1.27;;;16.90;99.90;;;;;;5066734;28;20257;-35
2022/05/24 08:49:25;;;;;;;2.58;1.15;;;17.00;99.90;;;;;;5032674;28;20210;-35
2022/05/24 08:52:02;;;;;;;2.33;0.98;;;17.00;99.90;;;;;;5046027;28;20204;-35
2022/05/24 08:54:41;;;;;;;2.25;0.88;;;17.10;99.90;;;;;;5047584;28;20308;-35
2022/05/24 08:57:46;;;;;;;3.30;1.00;;;17.10;99.90;;;;;;5047282;28;20339;-35
2022/05/24 09:00:35;;;;;;;5.45;1.10;;;17.20;99.90;;;;;;5044131;28;20660;-35
2022/05/24 09:03:07;;;;;;;3.90;1.13;;;17.20;99.90;;;;;;5028105;28;20998;-35
2022/05/24 09:05:45;;;;;;;10.55;1.67;;;17.20;99.90;;;;;;5027380;28;20201;-35
2022/05/24 09:08:19;;;;;;;4.95;1.17;;;17.20;99.90;;;;;;5027507;28;20574;-35
2022/05/24 09:11:25;;;;;;;2.10;0.82;;;17.20;99.90;;;;;;5046035;28;20308;-35
2022/05/24 09:14:00;;;;;;;3.53;0.98;;;17.20;99.90;;;;;;5046583;28;20204;-35
2022/05/24 09:17:04;;;;;;;3.55;0.98;;;17.10;99.90;;;;;;5036658;28;20200;-35
2022/05/24 09:19:39;;;;;;;5.13;1.33;;;17.10;99.90;;;;;;5044037;28;20228;-35
2022/05/24 09:22:10;;;;;;;3.70;1.02;;;17.10;99.90;;;;;;5027624;28;20279;-35
2022/05/24 09:24:48;;;;;;;6.90;0.90;;;17.00;99.90;;;;;;5028147;28;20251;-35
2022/05/24 09:27:23;;;;;;;2.10;1.20;;;17.00;99.90;;;;;;5027218;28;20605;-35
2022/05/24 09:29:57;;;;;;;1.20;1.10;;;17.00;99.90;;;;;;5049581;28;20231;-35
2022/05/24 09:32:44;;;;;;;3.45;1.50;;;17.10;99.90;;;;;;5050189;28;20651;-35
2022/05/24 09:35:18;;;;;;;2.72;1.27;;;17.00;99.90;;;;;;5051383;28;20200;-35
2022/05/24 09:37:55;;;;;;;3.00;1.30;;;17.00;99.90;;;;;;5042029;28;20223;-35
2022/05/24 09:40:24;;;;;;;4.10;1.30;;;17.00;99.90;;;;;;5059993;28;20320;-35
2022/05/24 09:43:16;;;;;;;2.55;1.00;;;17.00;99.90;;;;;;5029022;28;20288;-35
2022/05/24 09:45:48;;;;;;;0.98;0.70;;;17.10;99.90;;;;;;5031055;28;20208;-35
2022/05/24 09:48:28;;;;;;;2.67;0.88;;;17.10;99.90;;;;;;5030093;28;20723;-35
2022/05/24 09:50:57;;;;;;;1.80;0.63;;;17.20;99.90;;;;;;5030839;28;20630;-35
2022/05/24 09:53:30;;;;;;;2.75;0.70;;;17.30;99.90;;;;;;5031790;28;20236;-35
2022/05/24 09:56:17;;;;;;;4.13;0.70;;;17.30;99.90;;;;;;5030723;28;20302;-35
2022/05/24 09:58:55;;;;;;;1.38;0.60;;;17.30;99.90;;;;;;5037556;28;20204;-36
2022/05/24 10:01:40;;;;;;;3.05;0.45;;;17.40;99.90;;;;;;5049829;28;20220;-36
2022/05/24 10:04:23;;;;;;;0.68;0.60;;;17.50;99.90;;;;;;5050082;28;20667;-35
2022/05/24 10:06:58;;;;;;;4.38;0.65;;;17.50;99.90;;;;;;5050288;28;20212;-35
2022/05/24 10:10:03;;;;;;;0.68;0.50;;;17.60;99.90;;;;;;5050281;28;20238;-35
2022/05/24 10:12:44;;;;;;;1.00;0.55;;;17.60;99.90;;;;;;5049302;28;20283;-35
2022/05/24 10:15:17;;;;;;;4.30;1.08;;;17.60;99.90;;;;;;5038087;28;20205;-35
2022/05/24 10:17:50;;;;;;;3.13;0.70;;;17.60;99.90;;;;;;5029733;28;20754;-35
2022/05/24 10:20:40;;;;;;;4.28;0.85;;;17.60;99.90;;;;;;5032572;28;20290;-35
2022/05/24 10:23:19;;;;;;;2.17;0.60;;;17.50;99.90;;;;;;5035780;28;20207;-35
2022/05/24 10:26:00;;;;;;;1.40;0.55;;;17.50;99.90;;;;;;5068728;28;20191;-35
2022/05/24 10:28:41;;;;;;;1.58;0.57;;;17.50;99.90;;;;;;5048641;28;20208;-35
2022/05/24 10:31:15;;;;;;;3.80;0.70;;;17.50;99.90;;;;;;5029820;28;20307;-35
2022/05/24 10:40:08;;;;;;;1.90;0.55;;;17.40;99.90;;;;;;5053827;28;20208;-35
2022/05/24 10:42:55;;;;;;;3.13;0.82;;;17.30;99.90;;;;;;5049044;28;20220;-35
2022/05/24 10:45:51;;;;;;;1.52;0.77;;;17.40;99.90;;;;;;5048835;28;20227;-35
2022/05/24 10:48:36;;;;;;;2.17;0.65;;;17.40;99.90;;;;;;5042834;28;20236;-35
2022/05/24 10:51:21;;;;;;;1.48;0.70;;;17.40;99.90;;;;;;5029830;28;20213;-35
2022/05/24 11:03:47;;;;;;;0.88;0.30;;;17.40;99.90;;;;;;5022938;28;20239;-35
2022/05/24 11:06:30;;;;;;;0.70;0.45;;;17.30;99.90;;;;;;5035294;28;20304;-35
2022/05/24 11:09:06;;;;;;;1.42;0.30;;;17.30;99.90;;;;;;5033224;28;20318;-35
2022/05/24 11:11:54;;;;;;;2.50;0.50;;;17.20;99.90;;;;;;5048767;28;20254;-35
2022/05/24 11:14:28;;;;;;;0.73;0.40;;;17.20;99.90;;;;;;5048684;28;20208;-35
2022/05/24 11:16:56;;;;;;;3.75;0.80;;;17.20;99.90;;;;;;5048310;28;20232;-35
2022/05/24 11:19:27;;;;;;;1.80;0.50;;;17.20;99.90;;;;;;5046907;28;20210;-35
2022/05/24 11:22:09;;;;;;;2.03;0.60;;;17.20;99.90;;;;;;5048016;28;20228;-35
2022/05/24 11:24:51;;;;;;;1.92;0.70;;;17.30;99.90;;;;;;5030033;28;20267;-34
2022/05/24 11:27:34;;;;;;;6.55;1.13;;;17.20;99.90;;;;;;5048028;28;20197;-35
2022/05/24 11:30:47;;;;;;;3.78;1.05;;;17.20;99.90;;;;;;5048408;28;20732;-34
2022/05/24 11:33:43;;;;;;;0.68;0.40;;;17.30;99.90;;;;;;5027631;28;20618;-35
2022/05/24 11:36:31;;;;;;;1.90;0.93;;;17.30;99.90;;;;;;5029191;28;20223;-35
2022/05/24 11:39:11;;;;;;;3.13;0.70;;;17.30;99.90;;;;;;5049309;28;20673;-35
2022/05/24 11:42:20;;;;;;;1.83;0.85;;;17.40;99.90;;;;;;5028345;28;20682;-35
2022/05/24 11:44:51;;;;;;;1.45;0.60;;;17.40;99.90;;;;;;5028401;28;20208;-35
2022/05/24 11:47:37;;;;;;;10.43;0.90;;;17.50;99.90;;;;;;5026583;28;20675;-35
2022/05/24 11:50:08;;;;;;;4.30;0.73;;;17.50;99.40;;;;;;5028857;28;20616;-35
2022/05/24 11:52:45;;;;;;;1.58;0.52;;;17.60;99.70;;;;;;5028963;28;20212;-35
2022/05/24 11:55:50;;;;;;;1.58;0.50;;;17.60;99.40;;;;;;5043925;28;20561;-35
2022/05/24 11:58:20;;;;;;;2.28;0.77;;;17.50;99.70;;;;;;5027619;28;20208;-35
2022/05/24 12:01:08;;;;;;;0.77;0.50;;;17.60;99.70;;;;;;5035620;28;20625;-35
2022/05/24 12:09:59;;;;;;;5.80;1.38;;;17.60;99.90;;;;;;5047213;28;20223;-36
2022/05/24 12:12:44;;;;;;;1.02;0.70;;;17.60;99.90;;;;;;5046247;28;20349;-35
2022/05/24 12:15:20;;;;;;;1.25;0.70;;;17.60;99.60;;;;;;5028237;28;20211;-35
2022/05/24 12:18:07;;;;;;;1.92;0.70;;;17.60;99.90;;;;;;5027927;28;20292;-34
2022/05/24 12:20:34;;;;;;;2.88;0.82;;;17.60;99.90;;;;;;5027804;28;20209;-34
2022/05/24 12:23:04;;;;;;;1.05;0.50;;;17.70;99.90;;;;;;5028135;28;20706;-35
2022/05/24 12:25:59;;;;;;;1.15;0.60;;;17.70;99.90;;;;;;5047037;28;20608;-35
2022/05/24 12:28:36;;;;;;;2.42;0.80;;;17.80;99.90;;;;;;5026731;28;20635;-35
2022/05/24 12:31:18;;;;;;;3.05;1.48;;;17.80;99.90;;;;;;5038158;28;20216;-35
2022/05/24 12:33:58;;;;;;;2.38;1.38;;;17.80;99.90;;;;;;5047853;28;20200;-35
2022/05/24 12:36:41;;;;;;;1.95;1.00;;;17.90;99.90;;;;;;5043235;28;20216;-35
2022/05/24 12:39:33;;;;;;;1.25;0.82;;;17.90;99.90;;;;;;5064694;28;20261;-35
2022/05/24 12:42:05;;;;;;;1.20;0.90;;;18.00;99.90;;;;;;5067498;28;20273;-35
2022/05/24 12:44:41;;;;;;;3.83;1.00;;;18.00;99.90;;;;;;5043441;28;20591;-35
2022/05/24 12:47:09;;;;;;;2.15;0.98;;;18.10;99.90;;;;;;5030693;28;20745;-35
2022/05/24 12:49:48;;;;;;;0.70;0.50;;;18.10;99.90;;;;;;5046223;28;20203;-35
2022/05/24 12:52:22;;;;;;;1.85;0.50;;;18.10;99.90;;;;;;5047209;28;20238;-36
2022/05/24 12:54:51;;;;;;;1.70;0.70;;;18.10;99.90;;;;;;5027728;28;20296;-35
2022/05/24 12:57:21;;;;;;;2.13;0.50;;;18.00;99.90;;;;;;5040432;28;20550;-35
2022/05/24 12:59:59;;;;;;;2.58;0.70;;;17.90;99.90;;;;;;5027511;28;20201;-35
2022/05/24 13:02:48;;;;;;;1.30;0.70;;;17.90;99.90;;;;;;5027395;28;20637;-35
2022/05/24 13:05:21;;;;;;;0.85;0.70;;;17.80;99.90;;;;;;5043923;28;20618;-35
2022/05/24 13:07:51;;;;;;;4.40;1.00;;;17.80;99.90;;;;;;5051338;28;20323;-35
2022/05/24 13:10:25;;;;;;;2.13;0.73;;;17.80;99.90;;;;;;5051414;28;20223;-35
2022/05/24 13:13:07;;;;;;;2.80;0.50;;;17.90;99.90;;;;;;5049558;28;20287;-35
2022/05/24 13:15:56;;;;;;;0.70;0.50;;;17.90;99.90;;;;;;5066708;28;20208;-35
2022/05/24 13:18:27;;;;;;;0.95;0.70;;;18.00;99.90;;;;;;5050280;28;20636;-35
2022/05/24 13:21:00;;;;;;;2.13;1.10;;;18.00;99.90;;;;;;5048904;28;20208;-35
2022/05/24 13:23:40;;;;;;;2.45;1.02;;;18.00;99.90;;;;;;5031421;28;20242;-35
2022/05/24 13:26:08;;;;;;;2.38;1.20;;;18.10;99.90;;;;;;5050768;28;20209;-34
2022/05/24 13:28:48;;;;;;;1.40;0.75;;;18.10;99.90;;;;;;5069939;28;20198;-34
2022/05/24 13:34:33;;;;;;;3.17;1.38;;;18.10;99.90;;;;;;5050769;28;20216;-35
2022/05/24 13:37:46;;;;;;;4.43;1.25;;;18.20;99.90;;;;;;5031336;28;20209;-35
2022/05/24 13:40:16;;;;;;;1.95;1.05;;;18.20;99.90;;;;;;5034324;28;20200;-35
2022/05/24 13:43:01;;;;;;;3.63;1.02;;;18.20;99.90;;;;;;5050576;28;20562;-35
2022/05/24 13:45:29;;;;;;;2.53;1.20;;;18.30;99.90;;;;;;5049741;28;20188;-35
2022/05/24 13:48:20;;;;;;;1.85;0.70;;;18.20;99.90;;;;;;5050355;28;20242;-35
2022/05/24 13:50:47;;;;;;;1.13;0.57;;;18.20;99.90;;;;;;5050917;28;20693;-35
2022/05/24 13:53:37;;;;;;;0.70;0.40;;;18.20;99.90;;;;;;5033328;28;20216;-35
2022/05/24 13:56:07;;;;;;;0.52;0.30;;;18.10;99.90;;;;;;5029818;28;20255;-36
2022/05/24 13:58:36;;;;;;;3.80;0.40;;;17.90;99.90;;;;;;5045372;28;20299;-36
2022/05/24 14:01:23;;;;;;;0.55;0.25;;;17.90;99.90;;;;;;5049626;28;20644;-36
2022/05/24 14:04:15;;;;;;;0.50;0.30;;;17.80;99.90;;;;;;5049729;28;20242;-37
2022/05/24 14:07:10;;;;;;;1.30;0.35;;;17.70;99.90;;;;;;5050449;28;20242;-36
2022/05/24 14:09:39;;;;;;;1.05;0.55;;;17.70;99.90;;;;;;5048290;28;20210;-36
2022/05/24 14:12:07;;;;;;;1.17;0.40;;;17.80;99.90;;;;;;5045839;28;20216;-36
2022/05/24 14:14:39;;;;;;;5.68;0.60;;;17.80;99.90;;;;;;5028422;28;20292;-36